createdAt,value
2023-03-29T00:02:33.614Z,101596.86
2023-03-29T00:05:04.033Z,101593.99
2023-03-29T00:07:33.708Z,101590.88
2023-03-29T00:10:06.616Z,101593.45
2023-03-29T00:12:41.729Z,101596.05
2023-03-29T00:15:11.893Z,101597.56
2023-03-29T00:17:41.440Z,101602.91
2023-03-29T00:20:11.356Z,101605.77
2023-03-29T00:22:42.390Z,101602.70
2023-03-29T00:25:12.534Z,101607.19
2023-03-29T00:27:42.044Z,101610.67
2023-03-29T00:30:12.417Z,101609.38
2023-03-29T00:32:42.114Z,101610.52
2023-03-29T00:35:11.874Z,101610.67
2023-03-29T00:37:41.908Z,101613.14
2023-03-29T00:40:15.766Z,101607.55
2023-03-29T00:42:48.639Z,101606.39
2023-03-29T00:45:30.264Z,101609.93
2023-03-29T00:48:07.734Z,101610.70
2023-03-29T00:50:52.019Z,101608.77
2023-03-29T00:53:28.794Z,101604.95
2023-03-29T00:56:07.864Z,101607.07
2023-03-29T00:58:50.034Z,101602.86
2023-03-29T01:01:28.448Z,101606.22
2023-03-29T01:04:18.093Z,101606.46
2023-03-29T01:07:03.893Z,101606.49
2023-03-29T01:09:38.760Z,101614.57
2023-03-29T01:12:20.032Z,101618.14
2023-03-29T01:15:03.170Z,101625.16
2023-03-29T01:17:33.324Z,101621.91
2023-03-29T01:20:15.451Z,101621.88
2023-03-29T01:23:14.108Z,101629.83
2023-03-29T01:26:17.186Z,101630.95
2023-03-29T01:29:10.152Z,101631.02
2023-03-29T01:32:00.657Z,101633.58
2023-03-29T01:34:53.489Z,101638.33
2023-03-29T01:37:29.913Z,101640.49
2023-03-29T01:40:00.560Z,101639.27
2023-03-29T01:42:44.391Z,101636.52
2023-03-29T01:45:22.623Z,101635.85
2023-03-29T01:48:19.243Z,101643.26
2023-03-29T01:51:01.651Z,101643.95
2023-03-29T01:53:41.751Z,101643.30
2023-03-29T01:56:18.885Z,101644.88
2023-03-29T01:58:54.226Z,101641.64
2023-03-29T02:01:30.241Z,101641.82
2023-03-29T02:04:03.895Z,101640.87
2023-03-29T02:06:37.979Z,101638.75
2023-03-29T02:09:07.927Z,101638.19
2023-03-29T02:11:37.452Z,101642.98
2023-03-29T02:14:07.654Z,101647.04
2023-03-29T02:16:39.235Z,101649.45
2023-03-29T02:19:10.099Z,101652.58
2023-03-29T02:21:42.061Z,101654.45
2023-03-29T02:24:15.550Z,101659.89
2023-03-29T02:26:45.105Z,101661.34
2023-03-29T02:29:14.989Z,101663.56
2023-03-29T02:31:59.790Z,101665.77
2023-03-29T02:34:39.332Z,101668.33
2023-03-29T02:37:16.315Z,101669.68
2023-03-29T02:39:49.920Z,101676.48
2023-03-29T02:42:20.948Z,101683.48
2023-03-29T02:44:54.696Z,101685.81
2023-03-29T02:47:32.176Z,101690.98
2023-03-29T02:50:02.242Z,101692.45
2023-03-29T02:52:37.295Z,101694.56
2023-03-29T02:55:15.171Z,101698.55
2023-03-29T02:57:44.787Z,101702.65
2023-03-29T03:00:15.215Z,101705.20
2023-03-29T03:02:45.038Z,101710.66
2023-03-29T03:05:14.815Z,101711.98
2023-03-29T03:07:46.304Z,101710.17
2023-03-29T03:10:16.477Z,101714.31
2023-03-29T03:12:47.325Z,101720.38
2023-03-29T03:15:16.932Z,101720.42
2023-03-29T03:17:46.762Z,101728.48
2023-03-29T03:20:16.280Z,101729.90
2023-03-29T03:22:49.463Z,101731.50
2023-03-29T03:25:21.333Z,101727.66
2023-03-29T03:27:51.667Z,101728.35
2023-03-29T03:30:23.463Z,101729.00
2023-03-29T03:32:55.016Z,101730.29
2023-03-29T03:35:46.581Z,101726.65
2023-03-29T03:38:17.086Z,101727.76
2023-03-29T03:40:55.016Z,101728.85
2023-03-29T03:43:24.514Z,101728.11
2023-03-29T03:45:55.844Z,101721.77
2023-03-29T03:48:30.292Z,101725.95
2023-03-29T03:51:51.009Z,101729.90
2023-03-29T03:54:22.831Z,101731.05
2023-03-29T03:57:24.758Z,101731.62
2023-03-29T04:00:13.933Z,101736.23
2023-03-29T04:02:44.864Z,101737.36
2023-03-29T04:05:15.565Z,101733.58
2023-03-29T04:07:45.166Z,101733.84
2023-03-29T04:11:07.542Z,101733.02
2023-03-29T04:13:44.082Z,101740.44
2023-03-29T04:16:47.713Z,101747.52
2023-03-29T04:19:45.557Z,101756.07
2023-03-29T04:22:15.235Z,101755.79
2023-03-29T04:24:44.995Z,101757.66
2023-03-29T04:27:29.591Z,101762.27
2023-03-29T04:29:59.293Z,101764.31
2023-03-29T04:32:47.407Z,101767.05
2023-03-29T04:35:18.002Z,101764.52
2023-03-29T04:37:48.975Z,101765.61
2023-03-29T04:40:19.685Z,101762.83
2023-03-29T04:43:30.295Z,101765.17
2023-03-29T04:46:18.586Z,101768.08
2023-03-29T04:49:26.480Z,101769.40
2023-03-29T04:51:57.292Z,101774.09
2023-03-29T04:54:32.294Z,101779.73
2023-03-29T04:58:48.720Z,101787.84
2023-03-29T05:01:42.036Z,101791.73
2023-03-29T05:04:12.902Z,101794.73
2023-03-29T05:06:49.194Z,101795.28
2023-03-29T05:09:19.673Z,101793.73
2023-03-29T05:11:56.362Z,101790.61
2023-03-29T05:14:31.630Z,101795.73
2023-03-29T05:17:01.541Z,101803.49
2023-03-29T05:19:32.331Z,101807.95
2023-03-29T05:22:01.756Z,101808.17
2023-03-29T05:24:31.524Z,101812.88
2023-03-29T05:27:05.233Z,101811.34
2023-03-29T05:29:36.843Z,101817.92
2023-03-29T05:32:28.808Z,101817.32
2023-03-29T05:34:58.985Z,101821.17
2023-03-29T05:40:20.291Z,101823.84
2023-03-29T05:43:09.329Z,101829.27
2023-03-29T05:45:39.348Z,101830.80
2023-03-29T05:48:11.410Z,101831.96
2023-03-29T05:50:49.356Z,101840.52
2023-03-29T05:53:22.196Z,101844.93
2023-03-29T05:55:52.936Z,101845.90
2023-03-29T05:58:26.785Z,101846.59
2023-03-29T06:00:56.654Z,101844.91
2023-03-29T06:03:47.552Z,101853.75
2023-03-29T06:06:18.449Z,101861.90
2023-03-29T06:08:48.136Z,101862.65
2023-03-29T06:11:26.521Z,101868.27
2023-03-29T06:14:37.435Z,101875.36
2023-03-29T06:17:21.360Z,101887.70
2023-03-29T06:19:53.814Z,101895.99
2023-03-29T06:22:25.899Z,101906.63
2023-03-29T06:24:56.079Z,101916.52
2023-03-29T06:27:29.092Z,101920.98
2023-03-29T06:30:02.951Z,101922.15
2023-03-29T06:32:35.908Z,101924.46
2023-03-29T06:35:12.017Z,101935.09
2023-03-29T06:37:49.660Z,101931.88
2023-03-29T06:40:31.112Z,101933.02
2023-03-29T06:43:01.116Z,101938.02
2023-03-29T06:45:42.170Z,101939.98
2023-03-29T06:48:19.927Z,101943.34
2023-03-29T06:50:49.627Z,101952.40
2023-03-29T06:53:22.202Z,101951.51
2023-03-29T06:55:57.726Z,101955.11
2023-03-29T06:58:42.361Z,101961.92
2023-03-29T07:01:27.196Z,101963.65
2023-03-29T07:04:04.950Z,101966.30
2023-03-29T07:06:42.470Z,101969.65
2023-03-29T07:09:18.975Z,101970.20
2023-03-29T07:12:29.189Z,101972.30
2023-03-29T07:15:01.597Z,101975.67
2023-03-29T07:17:51.761Z,101982.47
2023-03-29T07:20:23.207Z,101981.96
2023-03-29T07:23:02.461Z,101979.19
2023-03-29T07:25:34.115Z,101981.38
2023-03-29T07:28:04.000Z,101982.55
2023-03-29T07:30:33.936Z,101983.86
2023-03-29T07:33:23.563Z,101986.86
2023-03-29T07:35:55.944Z,101987.75
2023-03-29T07:38:25.609Z,101982.45
2023-03-29T07:41:06.033Z,101983.86
2023-03-29T07:43:58.984Z,101986.67
2023-03-29T07:46:29.537Z,101990.96
2023-03-29T07:48:59.288Z,101991.46
2023-03-29T07:51:28.849Z,101994.91
2023-03-29T07:54:08.492Z,101994.66
2023-03-29T07:56:53.416Z,101995.36
2023-03-29T07:59:32.185Z,101993.96
2023-03-29T08:02:14.123Z,101997.53
2023-03-29T08:04:47.402Z,101999.08
2023-03-29T08:07:21.840Z,102000.48
2023-03-29T08:10:18.917Z,102002.30
2023-03-29T08:13:13.518Z,101996.42
2023-03-29T08:15:59.732Z,101993.64
2023-03-29T08:18:34.941Z,101989.73
2023-03-29T08:21:05.440Z,101989.83
2023-03-29T08:23:35.812Z,101988.16
2023-03-29T08:26:24.303Z,101982.84
2023-03-29T08:28:53.966Z,101983.52
2023-03-29T08:31:23.733Z,101982.30
2023-03-29T08:33:54.561Z,101981.67
2023-03-29T08:36:35.576Z,101978.00
2023-03-29T08:39:11.179Z,101977.23
2023-03-29T08:42:06.944Z,101976.73
2023-03-29T08:45:02.549Z,101970.48
2023-03-29T08:47:56.681Z,101972.05
2023-03-29T08:50:38.840Z,101971.70
2023-03-29T08:53:18.702Z,101976.44
2023-03-29T08:56:16.972Z,101980.50
2023-03-29T08:59:02.708Z,101979.69
2023-03-29T09:01:36.945Z,101974.41
2023-03-29T09:04:12.097Z,101977.04
2023-03-29T09:06:55.234Z,101971.24
2023-03-29T09:09:33.911Z,101975.41
2023-03-29T09:12:17.002Z,101974.17
2023-03-29T09:15:15.562Z,101968.66
2023-03-29T09:18:06.426Z,101970.90
2023-03-29T09:21:04.877Z,101968.40
2023-03-29T09:23:47.816Z,101979.77
2023-03-29T09:27:26.805Z,101977.88
2023-03-29T09:30:26.738Z,101973.74
2023-03-29T09:33:27.591Z,101967.98
2023-03-29T09:36:29.147Z,101973.27
2023-03-29T09:38:59.711Z,101978.92
2023-03-29T09:42:00.185Z,101977.56
2023-03-29T09:44:49.166Z,101981.71
2023-03-29T09:47:38.482Z,101985.67
2023-03-29T09:50:32.039Z,101984.48
2023-03-29T09:53:04.288Z,101982.45
2023-03-29T09:55:38.758Z,101981.39
2023-03-29T09:58:28.133Z,101979.16
2023-03-29T10:01:00.808Z,101978.20
2023-03-29T10:03:33.792Z,101972.07
2023-03-29T10:06:14.730Z,101969.93
2023-03-29T10:08:57.925Z,101966.58
2023-03-29T10:11:38.896Z,101965.98
2023-03-29T10:14:21.679Z,101961.70
2023-03-29T10:16:57.132Z,101960.95
2023-03-29T10:19:35.010Z,101958.85
2023-03-29T10:22:12.120Z,101946.83
2023-03-29T10:24:48.455Z,101937.33
2023-03-29T10:27:28.494Z,101931.94
2023-03-29T10:30:00.556Z,101927.80
2023-03-29T10:32:38.589Z,101936.19
2023-03-29T10:35:28.449Z,101943.04
2023-03-29T10:37:59.484Z,101943.14
2023-03-29T10:40:32.344Z,101941.42
2023-03-29T10:43:18.482Z,101939.61
2023-03-29T10:46:08.424Z,101939.27
2023-03-29T10:48:37.853Z,101942.64
2023-03-29T10:51:07.734Z,101939.68
2023-03-29T10:53:39.904Z,101941.05
2023-03-29T10:56:32.337Z,101942.55
2023-03-29T10:59:57.784Z,101947.73
2023-03-29T11:02:54.407Z,101976.16
2023-03-29T11:05:31.536Z,101991.66
2023-03-29T11:08:16.852Z,101994.76
2023-03-29T11:11:07.605Z,101994.30
2023-03-29T11:14:00.049Z,101987.10
2023-03-29T11:17:27.490Z,101986.98
2023-03-29T11:20:17.565Z,101986.75
2023-03-29T11:23:14.011Z,101990.16
2023-03-29T11:25:53.981Z,101986.88
2023-03-29T11:28:36.927Z,101986.86
2023-03-29T11:31:39.154Z,101985.98
2023-03-29T11:34:43.509Z,101988.34
2023-03-29T11:37:35.713Z,101982.34
2023-03-29T11:40:44.918Z,101973.86
2023-03-29T11:43:44.990Z,101966.52
2023-03-29T11:46:23.930Z,101956.77
2023-03-29T11:49:10.601Z,101951.42
2023-03-29T11:52:24.965Z,101950.02
2023-03-29T11:55:09.951Z,101957.05
2023-03-29T11:58:21.247Z,101960.23
2023-03-29T12:01:05.936Z,101966.48
2023-03-29T12:03:59.411Z,101963.20
2023-03-29T12:07:14.902Z,101962.44
2023-03-29T12:10:16.985Z,101965.04
2023-03-29T12:12:48.028Z,101959.52
2023-03-29T12:15:27.884Z,101967.45
2023-03-29T12:18:33.035Z,101976.80
2023-03-29T12:21:10.303Z,101977.67
2023-03-29T12:23:47.501Z,101981.61
2023-03-29T12:26:48.385Z,101978.49
2023-03-29T12:30:12.623Z,101986.46
2023-03-29T12:33:18.498Z,101979.30
2023-03-29T12:38:58.857Z,101976.73
2023-03-29T12:42:21.819Z,101955.66
2023-03-29T12:45:51.225Z,101946.28
2023-03-29T12:48:25.757Z,101951.95
2023-03-29T12:51:06.102Z,101952.95
2023-03-29T12:53:55.605Z,101951.55
2023-03-29T12:56:41.633Z,101951.08
2023-03-29T12:59:13.040Z,101944.33
2023-03-29T13:02:03.060Z,101947.59
2023-03-29T13:04:51.771Z,101952.31
2023-03-29T13:07:47.121Z,101952.61
2023-03-29T13:10:40.384Z,101950.61
2023-03-29T13:13:21.336Z,101944.80
2023-03-29T13:15:52.354Z,101952.17
2023-03-29T13:18:51.298Z,101956.45
2023-03-29T13:22:04.512Z,101954.27
2023-03-29T13:24:57.582Z,101955.77
2023-03-29T13:27:46.863Z,101964.23
2023-03-29T13:30:59.698Z,101967.31
2023-03-29T13:34:00.269Z,101971.08
2023-03-29T13:37:23.540Z,101972.92
2023-03-29T13:39:56.735Z,101969.11
2023-03-29T13:42:36.254Z,101973.59
2023-03-29T13:45:25.364Z,101975.02
2023-03-29T13:48:30.228Z,101973.14
2023-03-29T13:51:39.371Z,101973.13
2023-03-29T13:54:20.985Z,101977.06
2023-03-29T13:57:03.590Z,101982.42
2023-03-29T13:59:48.108Z,101980.52
2023-03-29T14:02:58.422Z,101977.88
2023-03-29T14:05:38.908Z,101979.13
2023-03-29T14:08:30.655Z,101974.98
2023-03-29T14:11:07.087Z,101976.84
2023-03-29T14:13:37.175Z,101972.84
2023-03-29T14:16:12.374Z,101970.98
2023-03-29T14:18:42.592Z,101980.02
2023-03-29T14:21:15.201Z,101977.96
2023-03-29T14:23:48.053Z,101979.02
2023-03-29T14:26:22.887Z,101981.98
2023-03-29T14:28:57.317Z,101983.06
2023-03-29T14:31:35.977Z,101984.98
2023-03-29T14:34:15.109Z,101988.95
2023-03-29T14:36:49.320Z,101989.72
2023-03-29T14:39:22.925Z,101990.59
2023-03-29T14:41:59.223Z,101992.34
2023-03-29T14:44:33.172Z,101991.72
2023-03-29T14:47:03.720Z,101991.53
2023-03-29T14:49:34.440Z,101993.21
2023-03-29T14:52:06.670Z,101992.30
2023-03-29T14:54:43.318Z,101990.89
2023-03-29T14:57:18.615Z,101992.14
2023-03-29T15:00:00.658Z,101999.13
2023-03-29T15:02:33.244Z,101998.25
2023-03-29T15:05:07.784Z,101996.98
2023-03-29T15:07:40.083Z,102000.08
2023-03-29T15:10:19.189Z,102002.91
2023-03-29T15:12:50.434Z,102001.77
2023-03-29T15:15:21.076Z,102003.36
2023-03-29T15:17:52.707Z,102003.98
2023-03-29T15:20:34.150Z,102005.41
2023-03-29T15:23:23.638Z,102002.33
2023-03-29T15:25:59.612Z,102001.39
2023-03-29T15:28:35.959Z,102003.60
2023-03-29T15:31:18.836Z,102020.10
2023-03-29T15:33:48.952Z,102028.23
2023-03-29T15:36:18.630Z,102034.30
2023-03-29T15:38:52.357Z,102043.17
2023-03-29T15:41:23.244Z,102039.14
2023-03-29T15:43:59.771Z,102039.54
2023-03-29T15:46:29.992Z,102040.06
2023-03-29T15:49:00.680Z,102040.60
2023-03-29T15:51:30.218Z,102033.52
2023-03-29T15:53:59.701Z,102036.23
2023-03-29T15:56:29.196Z,102037.20
2023-03-29T15:58:58.779Z,102039.11
2023-03-29T16:01:35.815Z,102040.81
2023-03-29T16:04:16.967Z,102043.73
2023-03-29T16:06:50.966Z,102048.48
2023-03-29T16:09:22.601Z,102049.86
2023-03-29T16:11:52.074Z,102050.95
2023-03-29T16:14:23.289Z,102055.70
2023-03-29T16:16:55.604Z,102059.30
2023-03-29T16:19:27.053Z,102064.22
2023-03-29T16:21:57.585Z,102066.48
2023-03-29T16:24:34.219Z,102069.29
2023-03-29T16:27:04.920Z,102069.05
2023-03-29T16:29:35.152Z,102072.01
2023-03-29T16:32:06.769Z,102075.10
2023-03-29T16:34:38.570Z,102081.36
2023-03-29T16:37:13.165Z,102085.08
2023-03-29T16:39:42.853Z,102087.67
2023-03-29T16:42:13.194Z,102086.23
2023-03-29T16:44:44.690Z,102091.20
2023-03-29T16:47:14.383Z,102096.59
2023-03-29T16:49:45.828Z,102098.70
2023-03-29T16:52:17.557Z,102103.18
2023-03-29T16:54:49.587Z,102106.67
2023-03-29T16:57:20.031Z,102108.48
2023-03-29T16:59:49.656Z,102109.73
2023-03-29T17:02:21.682Z,102112.64
2023-03-29T17:04:51.954Z,102111.23
2023-03-29T17:07:23.948Z,102118.71
2023-03-29T17:09:53.936Z,102120.44
2023-03-29T17:12:23.850Z,102123.98
2023-03-29T17:14:53.405Z,102122.86
2023-03-29T17:17:23.419Z,102124.69
2023-03-29T17:19:55.119Z,102130.73
2023-03-29T17:22:25.713Z,102133.36
2023-03-29T17:24:55.465Z,102133.77
2023-03-29T17:27:25.626Z,102133.70
2023-03-29T17:29:55.285Z,102130.88
2023-03-29T17:32:25.013Z,102133.73
2023-03-29T17:34:55.813Z,102137.00
2023-03-29T17:37:28.892Z,102137.91
2023-03-29T17:39:58.523Z,102141.52
2023-03-29T17:42:30.507Z,102146.54
2023-03-29T17:45:00.382Z,102153.52
2023-03-29T17:47:30.735Z,102156.23
2023-03-29T17:50:00.890Z,102160.73
2023-03-29T17:52:30.441Z,102168.33
2023-03-29T17:55:00.358Z,102169.70
2023-03-29T17:57:32.445Z,102175.77
2023-03-29T18:00:02.057Z,102178.69
2023-03-29T18:02:34.774Z,102183.27
2023-03-29T18:05:08.460Z,102186.34
2023-03-29T18:07:38.436Z,102188.53
2023-03-29T18:10:09.632Z,102190.09
2023-03-29T18:12:39.960Z,102194.38
2023-03-29T18:15:10.025Z,102199.13
2023-03-29T18:17:42.266Z,102202.57
2023-03-29T18:20:13.851Z,102206.69
2023-03-29T18:22:44.792Z,102215.38
2023-03-29T18:25:15.070Z,102207.21
2023-03-29T18:27:47.092Z,102211.45
2023-03-29T18:30:20.003Z,102215.30
2023-03-29T18:32:50.002Z,102214.27
2023-03-29T18:35:19.495Z,102218.95
2023-03-29T18:37:49.824Z,102218.32
2023-03-29T18:40:29.251Z,102223.91
2023-03-29T18:42:59.577Z,102222.92
2023-03-29T18:45:32.364Z,102226.84
2023-03-29T18:48:02.328Z,102227.85
2023-03-29T18:50:32.658Z,102235.95
2023-03-29T18:53:07.770Z,102237.89
2023-03-29T18:55:45.593Z,102239.84
2023-03-29T18:58:18.330Z,102240.67
2023-03-29T19:00:47.941Z,102240.09
2023-03-29T19:03:20.262Z,102235.93
2023-03-29T19:05:55.730Z,102238.23
2023-03-29T19:08:26.502Z,102240.21
2023-03-29T19:11:07.878Z,102242.69
2023-03-29T19:13:40.976Z,102238.31
2023-03-29T19:16:10.725Z,102237.55
2023-03-29T19:18:40.950Z,102238.63
2023-03-29T19:21:15.545Z,102243.28
2023-03-29T19:23:47.473Z,102242.83
2023-03-29T19:26:16.949Z,102239.49
2023-03-29T19:28:46.913Z,102240.14
2023-03-29T19:31:18.227Z,102238.76
2023-03-29T19:33:48.078Z,102238.00
2023-03-29T19:36:17.682Z,102236.55
2023-03-29T19:38:47.293Z,102235.95
2023-03-29T19:41:17.307Z,102234.31
2023-03-29T19:43:46.917Z,102239.33
2023-03-29T19:46:16.950Z,102238.67
2023-03-29T19:48:47.162Z,102240.41
2023-03-29T19:51:16.827Z,102239.95
2023-03-29T19:53:48.156Z,102241.70
2023-03-29T19:56:18.947Z,102241.05
2023-03-29T19:58:52.966Z,102239.73
2023-03-29T20:01:22.712Z,102241.49
2023-03-29T20:03:52.363Z,102244.09
2023-03-29T20:06:22.101Z,102239.75
2023-03-29T20:08:53.035Z,102241.68
2023-03-29T20:11:24.234Z,102236.98
2023-03-29T20:13:53.991Z,102240.43
2023-03-29T20:16:24.552Z,102239.99
2023-03-29T20:18:56.488Z,102236.47
2023-03-29T20:21:26.093Z,102236.85
2023-03-29T20:23:56.676Z,102236.40
2023-03-29T20:26:28.164Z,102236.61
2023-03-29T20:28:57.919Z,102234.75
2023-03-29T20:31:29.591Z,102233.08
2023-03-29T20:33:59.123Z,102231.57
2023-03-29T20:36:30.873Z,102229.48
2023-03-29T20:39:01.341Z,102227.27
2023-03-29T20:41:31.727Z,102224.85
2023-03-29T20:44:03.122Z,102224.69
2023-03-29T20:46:38.077Z,102226.94
2023-03-29T20:49:10.145Z,102222.67
2023-03-29T20:51:40.485Z,102223.35
2023-03-29T20:54:12.571Z,102222.30
2023-03-29T20:56:44.557Z,102223.98
2023-03-29T20:59:14.828Z,102223.92
2023-03-29T21:01:44.467Z,102219.32
2023-03-29T21:04:14.038Z,102221.05
2023-03-29T21:06:45.819Z,102218.02
2023-03-29T21:09:21.441Z,102218.45
2023-03-29T21:11:52.497Z,102220.11
2023-03-29T21:14:22.630Z,102215.94
2023-03-29T21:16:53.651Z,102216.69
2023-03-29T21:19:24.367Z,102218.09
2023-03-29T21:21:55.020Z,102215.45
2023-03-29T21:24:24.797Z,102217.39
2023-03-29T21:26:55.471Z,102220.48
2023-03-29T21:29:25.615Z,102221.55
2023-03-29T21:31:55.485Z,102225.50
2023-03-29T21:34:25.112Z,102225.48
2023-03-29T21:36:54.706Z,102226.54
2023-03-29T21:39:26.988Z,102219.25
2023-03-29T21:41:56.486Z,102224.70
2023-03-29T21:44:26.554Z,102219.73
2023-03-29T21:46:56.573Z,102218.83
2023-03-29T21:49:26.096Z,102221.30
2023-03-29T21:51:58.319Z,102223.67
2023-03-29T21:54:29.243Z,102225.40
2023-03-29T21:56:58.801Z,102223.23
2023-03-29T21:59:28.575Z,102225.14
2023-03-29T22:01:58.936Z,102224.13
2023-03-29T22:04:36.481Z,102222.64
2023-03-29T22:07:07.396Z,102225.95
2023-03-29T22:09:37.423Z,102226.02
2023-03-29T22:12:07.753Z,102226.11
2023-03-29T22:14:37.487Z,102223.44
2023-03-29T22:17:09.242Z,102229.01
2023-03-29T22:19:39.735Z,102225.64
2023-03-29T22:22:14.138Z,102226.95
2023-03-29T22:24:43.987Z,102225.98
2023-03-29T22:27:14.230Z,102222.79
2023-03-29T22:29:44.033Z,102221.67
2023-03-29T22:32:13.709Z,102220.59
2023-03-29T22:34:45.892Z,102219.48
2023-03-29T22:37:17.564Z,102219.04
2023-03-29T22:39:47.182Z,102219.27
2023-03-29T22:42:16.995Z,102220.59
2023-03-29T22:44:46.944Z,102223.02
2023-03-29T22:47:16.611Z,102223.45
2023-03-29T22:49:46.050Z,102224.86
2023-03-29T22:52:17.981Z,102226.95
2023-03-29T22:54:47.494Z,102223.93
2023-03-29T22:57:17.212Z,102226.55
2023-03-29T22:59:47.318Z,102223.14
2023-03-29T23:02:16.888Z,102226.90
2023-03-29T23:04:47.772Z,102222.67
2023-03-29T23:07:17.501Z,102222.02
2023-03-29T23:09:47.068Z,102221.35
2023-03-29T23:12:17.208Z,102217.13
2023-03-29T23:14:48.237Z,102218.52
2023-03-29T23:17:19.369Z,102217.67
2023-03-29T23:19:49.324Z,102216.55
2023-03-29T23:22:18.862Z,102219.98
2023-03-29T23:24:48.489Z,102220.17
2023-03-29T23:27:18.568Z,102219.34
2023-03-29T23:29:48.186Z,102215.98
2023-03-29T23:32:17.716Z,102220.80
2023-03-29T23:34:47.270Z,102217.94
2023-03-29T23:37:16.769Z,102219.15
2023-03-29T23:39:46.379Z,102219.88
2023-03-29T23:42:16.597Z,102216.98
2023-03-29T23:44:46.940Z,102221.11
2023-03-29T23:47:16.854Z,102222.48
2023-03-29T23:49:47.682Z,102225.41
2023-03-29T23:52:17.621Z,102221.72
2023-03-29T23:54:48.050Z,102223.45
2023-03-29T23:57:17.544Z,102222.45
2023-03-29T23:59:52.566Z,102224.31
